Time;durP1;ratioP1;P1;durP2;ratioP2;P2;SDS_P1;SDS_P2;PMS_P1;PMS_P2;Temp;Humidity;BMP_temperature;BMP_pressure;BME280_temperature;BME280_humidity;BME280_pressure;Samples;Min_cycle;Max_cycle;Signal;HPM_P1;HPM_P2
2022/06/06 00:02:06;;;;;;;2.40;2.20;;;;;;;15.26;100.00;96406.34;5086822;28;20463;-74
2022/06/06 00:04:34;;;;;;;1.80;1.70;;;;;;;15.36;100.00;96421.75;5077076;28;20451;-74
2022/06/06 00:07:02;;;;;;;2.00;1.90;;;;;;;15.33;100.00;96422.44;5075795;28;20467;-74
2022/06/06 00:09:29;;;;;;;1.90;1.80;;;;;;;15.25;100.00;96420.03;5069854;28;20462;-74
2022/06/06 00:11:58;;;;;;;2.70;1.70;;;;;;;15.25;100.00;96418.13;5069735;28;20451;-74
2022/06/06 00:14:25;;;;;;;2.17;1.47;;;;;;;15.07;100.00;96396.47;5069893;28;20467;-74
2022/06/06 00:16:52;;;;;;;3.00;2.13;;;;;;;15.13;100.00;96412.19;5066528;28;20847;-74
2022/06/06 00:19:19;;;;;;;1.93;1.60;;;;;;;15.14;100.00;96416.38;5069805;28;20874;-74
2022/06/06 00:21:47;;;;;;;1.90;1.67;;;;;;;15.10;100.00;96420.88;5069694;28;20467;-74
2022/06/06 00:24:14;;;;;;;2.80;2.13;;;;;;;14.90;100.00;96390.84;5069610;28;20452;-74
2022/06/06 00:26:42;;;;;;;7.87;1.80;;;;;;;14.93;100.00;96396.22;5085607;28;20886;-74
2022/06/06 00:29:12;;;;;;;2.50;1.50;;;;;;;15.09;100.00;96422.78;5089919;28;20927;-74
2022/06/06 00:37:13;;;;;;;6.30;1.73;;;;;;;15.22;100.00;96424.13;5070283;28;20493;-74
2022/06/06 00:39:42;;;;;;;1.30;1.20;;;;;;;15.11;100.00;96401.88;5083285;28;20465;-75
2022/06/06 00:42:30;;;;;;;1.53;1.40;;;;;;;15.26;100.00;96417.00;5069812;28;20522;-74
2022/06/06 00:45:15;;;;;;;2.47;1.60;;;;;;;15.30;100.00;96414.38;5069810;28;20432;-74
2022/06/06 00:47:44;;;;;;;1.90;1.80;;;;;;;15.25;100.00;96428.78;5087899;28;20460;-74
2022/06/06 00:50:18;;;;;;;1.90;1.70;;;;;;;15.22;100.00;96429.47;5073516;28;20472;-74
2022/06/06 00:52:49;;;;;;;1.73;1.63;;;;;;;15.24;100.00;96427.25;5077168;28;20551;-74
2022/06/06 00:55:19;;;;;;;1.90;1.50;;;;;;;15.24;100.00;96437.91;5082520;28;20492;-74
2022/06/06 00:57:50;;;;;;;1.80;1.70;;;;;;;15.22;100.00;96426.03;5073303;28;20489;-74
2022/06/06 01:00:19;;;;;;;1.53;1.43;;;;;;;15.06;100.00;96402.16;5073394;28;20436;-74
2022/06/06 01:02:50;;;;;;;1.97;1.77;;;;;;;15.18;100.00;96431.31;5086485;28;20559;-74
2022/06/06 01:05:19;;;;;;;4.60;1.93;;;;;;;15.20;100.00;96439.72;5073639;28;20437;-74
2022/06/06 01:07:46;;;;;;;2.50;1.63;;;;;;;15.03;100.00;96424.19;5073441;28;20498;-74
2022/06/06 01:10:15;;;;;;;5.37;2.10;;;;;;;15.04;100.00;96433.69;5072980;28;20878;-74
2022/06/06 01:12:45;;;;;;;1.90;1.80;;;;;;;14.88;100.00;96417.03;5074248;28;20492;-74
2022/06/06 01:15:15;;;;;;;1.63;1.53;;;;;;;14.94;100.00;96432.38;5086535;28;20468;-74
2022/06/06 01:18:10;;;;;;;2.37;1.77;;;;;;;14.91;100.00;96440.31;5073116;28;20425;-74
2022/06/06 01:21:11;;;;;;;3.90;1.90;;;;;;;14.90;100.00;96436.09;5060082;28;20440;-74
2022/06/06 01:23:50;;;;;;;2.23;2.03;;;;;;;14.86;100.00;96443.25;5091702;28;21024;-74
2022/06/06 01:26:35;;;;;;;1.93;1.80;;;;;;;14.85;100.00;96433.72;5079558;28;20499;-74
2022/06/06 01:29:20;;;;;;;1.90;1.80;;;;;;;14.68;100.00;96422.34;5061981;28;20447;-74
2022/06/06 01:31:58;;;;;;;1.93;1.83;;;;;;;14.51;100.00;96406.81;5077832;28;20932;-74
2022/06/06 01:34:32;;;;;;;4.93;2.10;;;;;;;14.68;100.00;96433.00;5079343;28;20456;-74
2022/06/06 01:36:59;;;;;;;3.73;2.00;;;;;;;14.35;100.00;96403.41;5060023;28;20459;-73
2022/06/06 01:39:29;;;;;;;2.00;1.90;;;;;;;14.52;100.00;96429.63;5072572;28;20443;-74
2022/06/06 01:42:18;;;;;;;2.30;2.10;;;;;;;14.46;100.00;96431.03;5072597;28;20435;-74
2022/06/06 01:45:21;;;;;;;1.93;1.83;;;;;;;14.33;100.00;96421.59;5092169;28;20866;-74
2022/06/06 01:47:55;;;;;;;1.63;1.40;;;;;;;14.46;100.00;96437.13;5085850;28;20467;-74
2022/06/06 01:50:22;;;;;;;1.70;1.60;;;;;;;14.45;100.00;96432.16;5072317;28;20537;-74
2022/06/06 01:52:53;;;;;;;2.00;1.90;;;;;;;14.51;100.00;96432.66;5072419;28;20812;-74
2022/06/06 01:55:20;;;;;;;2.10;2.00;;;;;;;14.37;100.00;96411.81;5053247;28;20437;-74
2022/06/06 01:57:50;;;;;;;2.33;1.73;;;;;;;14.56;100.00;96443.03;5070970;28;20522;-74
2022/06/06 02:00:18;;;;;;;3.70;1.87;;;;;;;14.48;100.00;96429.56;5086251;28;20437;-74
2022/06/06 02:02:44;;;;;;;2.80;1.83;;;;;;;14.57;100.00;96437.34;5072463;28;20510;-74
2022/06/06 02:05:14;;;;;;;2.70;2.17;;;;;;;14.44;100.00;96420.75;5072063;28;20490;-75
2022/06/06 02:07:41;;;;;;;2.10;1.90;;;;;;;14.56;100.00;96429.72;5071855;28;20428;-74
2022/06/06 02:10:10;;;;;;;2.20;2.00;;;;;;;14.75;100.00;96443.81;5071909;28;20431;-74
2022/06/06 02:12:38;;;;;;;4.23;1.93;;;;;;;14.82;100.00;96434.41;5073254;28;20547;-75
2022/06/06 02:15:07;;;;;;;1.73;1.63;;;;;;;14.74;100.00;96434.28;5071682;28;20420;-74
2022/06/06 02:17:34;;;;;;;1.87;1.77;;;;;;;14.88;100.00;96438.34;5073039;28;20456;-74
2022/06/06 02:20:04;;;;;;;1.43;1.33;;;;;;;14.70;100.00;96406.84;5071497;28;20471;-74
2022/06/06 02:22:31;;;;;;;4.40;2.03;;;;;;;14.83;100.00;96439.41;5088515;28;20486;-74
2022/06/06 02:24:58;;;;;;;6.07;1.73;;;;;;;14.85;100.00;96444.38;5071443;28;20435;-74
2022/06/06 02:27:26;;;;;;;2.00;1.80;;;;;;;14.70;100.00;96417.47;5072165;28;20939;-74
2022/06/06 02:29:53;;;;;;;1.93;1.83;;;;;;;14.78;100.00;96431.69;5074428;28;20437;-74
2022/06/06 02:32:21;;;;;;;2.83;1.70;;;;;;;14.71;100.00;96412.94;5074676;28;20436;-74
2022/06/06 02:34:48;;;;;;;2.10;2.00;;;;;;;14.57;100.00;96394.00;5090473;28;20432;-74
2022/06/06 02:37:15;;;;;;;2.20;2.00;;;;;;;14.82;100.00;96437.06;5071668;28;20938;-74
2022/06/06 02:39:43;;;;;;;2.80;2.60;;;;;;;14.80;100.00;96421.44;5071476;28;20487;-74
2022/06/06 02:42:10;;;;;;;2.83;2.63;;;;;;;14.66;100.00;96411.28;5071676;28;20441;-74
2022/06/06 02:44:37;;;;;;;3.80;3.50;;;;;;;14.89;100.00;96421.25;5071662;28;20552;-74
2022/06/06 02:47:04;;;;;;;3.43;3.13;;;;;;;14.85;100.00;96404.44;5071617;28;20841;-74
2022/06/06 02:49:33;;;;;;;2.97;2.67;;;;;;;14.69;100.00;96389.31;5072578;28;20493;-74
2022/06/06 02:52:01;;;;;;;3.30;3.10;;;;;;;14.77;100.00;96406.94;5082226;28;20432;-74
2022/06/06 02:54:29;;;;;;;2.73;2.40;;;;;;;14.77;100.00;96414.94;5070440;28;20483;-74
2022/06/06 02:56:57;;;;;;;5.90;3.70;;;;;;;14.77;100.00;96425.59;5083415;28;20462;-74
2022/06/06 02:59:26;;;;;;;4.73;3.40;;;;;;;14.95;100.00;96460.53;5052645;28;20447;-74
2022/06/06 03:01:53;;;;;;;8.30;3.40;;;;;;;14.64;100.00;96410.88;5071237;28;20952;-74
2022/06/06 03:04:21;;;;;;;3.00;2.20;;;;;;;14.91;100.00;96458.94;5070924;28;20448;-74
2022/06/06 03:07:25;;;;;;;3.53;2.00;;;;;;;14.74;100.00;96430.84;5071381;28;20466;-74
2022/06/06 03:10:08;;;;;;;5.90;2.13;;;;;;;14.70;100.00;96438.00;5042793;28;20848;-74
2022/06/06 03:12:56;;;;;;;3.80;1.70;;;;;;;14.89;100.00;96461.19;5064470;28;21000;-74
2022/06/06 03:22:13;;;;;;;2.27;1.50;;;;;;;14.84;100.00;96461.47;5073103;28;20428;-74
2022/06/06 03:24:58;;;;;;;3.70;2.50;;;;;;;15.05;100.00;96483.94;5072503;28;20778;-74
2022/06/06 03:27:35;;;;;;;7.20;1.80;;;;;;;14.83;100.00;96462.59;5091351;28;20459;-74
2022/06/06 03:30:15;;;;;;;4.30;1.67;;;;;;;14.95;100.00;96481.06;5074840;28;20428;-74
2022/06/06 03:33:06;;;;;;;2.10;1.90;;;;;;;14.90;100.00;96484.03;5074319;28;20452;-74
2022/06/06 03:35:46;;;;;;;3.47;2.23;;;;;;;14.92;100.00;96487.88;5063749;28;20433;-74
2022/06/06 03:38:39;;;;;;;2.03;1.83;;;;;;;14.80;100.00;96474.69;5076447;28;20507;-74
2022/06/06 03:41:11;;;;;;;2.60;2.10;;;;;;;14.73;100.00;96471.91;5073837;28;20533;-74
2022/06/06 03:43:41;;;;;;;2.20;2.10;;;;;;;14.84;100.00;96490.75;5073977;28;20900;-74
2022/06/06 03:46:24;;;;;;;2.00;1.90;;;;;;;14.87;100.00;96492.72;5071451;28;20940;-74
2022/06/06 03:49:07;;;;;;;2.40;2.20;;;;;;;14.93;100.00;96500.06;5067201;28;20424;-74
2022/06/06 03:51:40;;;;;;;2.90;2.30;;;;;;;14.99;100.00;96498.69;5072165;28;20440;-74
2022/06/06 03:54:39;;;;;;;2.63;2.00;;;;;;;14.91;100.00;96504.19;5073316;28;20542;-74
2022/06/06 03:57:19;;;;;;;4.53;2.50;;;;;;;14.98;100.00;96507.03;5066372;28;20499;-74
2022/06/06 03:59:48;;;;;;;3.07;2.17;;;;;;;14.93;100.00;96507.28;5072799;28;20463;-74
2022/06/06 04:02:19;;;;;;;2.80;2.60;;;;;;;14.94;100.00;96514.91;5073398;28;20592;-74
2022/06/06 04:04:46;;;;;;;2.60;2.40;;;;;;;15.11;100.00;96524.41;5063266;28;20472;-74
2022/06/06 04:07:13;;;;;;;2.60;2.40;;;;;;;14.94;100.00;96512.25;5087078;28;20429;-74
2022/06/06 04:09:40;;;;;;;5.07;2.07;;;;;;;14.95;100.00;96526.34;5071565;28;20456;-74
2022/06/06 04:12:26;;;;;;;3.20;2.90;;;;;;;14.95;100.00;96521.00;5072929;28;20513;-74
2022/06/06 04:15:12;;;;;;;2.60;2.10;;;;;;;14.75;100.00;96482.97;5060976;28;20932;-74
2022/06/06 04:17:58;;;;;;;2.53;2.37;;;;;;;15.13;100.00;96532.81;5058551;28;20464;-74
2022/06/06 04:21:06;;;;;;;2.70;2.50;;;;;;;15.22;100.00;96532.59;5089452;28;20465;-74
2022/06/06 04:23:45;;;;;;;2.40;2.00;;;;;;;15.26;100.00;96531.56;5026553;28;20444;-74
2022/06/06 04:26:41;;;;;;;2.50;2.30;;;;;;;15.17;100.00;96538.19;5088163;28;20419;-74
2022/06/06 04:29:32;;;;;;;2.97;2.73;;;;;;;15.22;100.00;96530.69;5063607;28;20428;-74
2022/06/06 04:32:30;;;;;;;3.57;3.27;;;;;;;15.16;100.00;96532.09;5061802;28;20404;-74
2022/06/06 04:35:06;;;;;;;2.87;2.70;;;;;;;15.14;100.00;96529.03;5088734;28;20858;-74
2022/06/06 04:37:56;;;;;;;3.37;3.17;;;;;;;15.06;100.00;96532.66;5090563;28;20937;-74
2022/06/06 04:40:36;;;;;;;4.10;3.80;;;;;;;14.92;100.00;96503.84;5058381;28;20994;-74
2022/06/06 04:43:06;;;;;;;3.73;3.37;;;;;;;15.14;100.00;96528.25;5078871;28;20811;-74
2022/06/06 04:45:45;;;;;;;3.87;3.57;;;;;;;15.12;100.00;96531.28;5065589;28;20439;-74
2022/06/06 04:48:13;;;;;;;4.13;3.73;;;;;;;15.21;100.00;96542.47;5067019;28;20434;-74
2022/06/06 04:50:45;;;;;;;4.10;3.80;;;;;;;15.27;100.00;96541.09;5081216;28;20427;-74
2022/06/06 04:53:17;;;;;;;3.93;3.63;;;;;;;15.17;100.00;96525.66;5043926;28;20913;-74
2022/06/06 04:55:47;;;;;;;4.50;4.10;;;;;;;15.01;100.00;96496.44;5074721;28;20987;-74
2022/06/06 04:58:16;;;;;;;4.40;4.00;;;;;;;14.94;100.00;96506.16;5073403;28;20996;-74
2022/06/06 05:00:44;;;;;;;6.40;3.67;;;;;;;15.07;100.00;96518.22;5073287;28;20493;-74
2022/06/06 05:03:15;;;;;;;4.00;3.70;;;;;;;14.90;100.00;96502.66;5073536;28;20464;-74
2022/06/06 05:05:41;;;;;;;5.30;3.73;;;;;;;15.08;100.00;96541.84;5073081;28;20455;-74
2022/06/06 05:08:24;;;;;;;3.60;3.30;;;;;;;15.02;100.00;96524.59;5073210;28;20478;-74
2022/06/06 05:10:54;;;;;;;4.23;3.93;;;;;;;15.11;100.00;96537.72;5073395;28;20490;-74
2022/06/06 05:13:29;;;;;;;4.10;3.80;;;;;;;15.13;100.00;96540.03;5089938;28;20494;-74
2022/06/06 05:16:10;;;;;;;4.73;4.30;;;;;;;15.30;100.00;96547.59;5060917;28;20519;-74
2022/06/06 05:19:09;;;;;;;4.60;3.70;;;;;;;15.29;100.00;96541.50;5072776;28;20436;-74
2022/06/06 05:22:03;;;;;;;5.23;4.03;;;;;;;15.42;100.00;96544.03;5053755;28;20938;-74
2022/06/06 05:24:50;;;;;;;3.67;3.37;;;;;;;15.29;100.00;96522.84;5074802;28;20447;-73
2022/06/06 05:27:38;;;;;;;3.97;3.60;;;;;;;15.48;100.00;96554.03;5085903;28;20458;-74
2022/06/06 05:30:16;;;;;;;4.77;4.37;;;;;;;15.57;100.00;96557.25;5089555;28;20979;-74
2022/06/06 05:32:49;;;;;;;3.90;3.50;;;;;;;15.71;100.00;96556.00;5072384;28;20487;-74
2022/06/06 05:35:28;;;;;;;4.90;4.50;;;;;;;15.86;100.00;96547.91;5072269;28;20448;-74
2022/06/06 05:38:19;;;;;;;4.43;3.70;;;;;;;15.86;100.00;96558.56;5072435;28;20456;-74
2022/06/06 05:41:05;;;;;;;4.30;3.90;;;;;;;15.79;100.00;96539.78;5072491;28;20821;-74
2022/06/06 05:43:48;;;;;;;4.73;4.23;;;;;;;16.08;100.00;96558.94;5073788;28;20514;-74
2022/06/06 05:46:24;;;;;;;5.63;5.00;;;;;;;16.18;100.00;96561.81;5072230;28;20453;-74
2022/06/06 05:49:16;;;;;;;5.13;4.63;;;;;;;16.34;100.00;96550.22;5072359;28;20432;-74
2022/06/06 05:51:59;;;;;;;4.83;4.43;;;;;;;16.49;100.00;96563.44;5072249;28;20491;-74
2022/06/06 05:54:44;;;;;;;5.57;5.07;;;;;;;16.45;100.00;96567.94;5076456;28;20508;-74
2022/06/06 05:57:16;;;;;;;6.10;4.23;;;;;;;16.76;100.00;96563.47;5080231;28;20899;-74
2022/06/06 06:00:07;;;;;;;4.43;4.10;;;;;;;16.94;100.00;96564.47;5072164;28;20498;-74
2022/06/06 06:03:06;;;;;;;5.83;5.17;;;;;;;16.91;100.00;96557.19;5087194;28;20444;-74
2022/06/06 06:06:19;;;;;;;4.40;4.00;;;;;;;17.07;100.00;96552.44;5088888;28;20474;-74
2022/06/06 06:09:06;;;;;;;4.23;3.93;;;;;;;17.07;100.00;96517.69;5011104;28;20493;-74
2022/06/06 06:12:09;;;;;;;4.30;3.93;;;;;;;17.51;100.00;96554.50;5070266;28;20448;-74
2022/06/06 06:14:51;;;;;;;4.80;3.93;;;;;;;17.24;100.00;96553.03;5066513;28;20510;-73
2022/06/06 06:17:23;;;;;;;5.50;4.80;;;;;;;17.23;100.00;96562.16;5079633;28;20502;-74
2022/06/06 06:20:01;;;;;;;5.10;4.03;;;;;;;17.21;100.00;96559.09;5092137;28;20830;-74
2022/06/06 06:22:34;;;;;;;4.97;4.53;;;;;;;17.48;100.00;96557.88;5059416;28;20436;-74
2022/06/06 06:25:03;;;;;;;6.97;3.97;;;;;;;17.22;100.00;96533.91;5071640;28;20467;-74
2022/06/06 06:27:35;;;;;;;5.37;4.53;;;;;;;17.16;100.00;96530.78;5071504;28;20467;-74
2022/06/06 06:30:06;;;;;;;4.60;4.13;;;;;;;17.45;100.00;96566.63;5071902;28;20436;-74
2022/06/06 06:33:11;;;;;;;5.70;4.53;;;;;;;17.68;100.00;96566.50;5071404;28;20502;-74
2022/06/06 06:36:04;;;;;;;8.00;5.03;;;;;;;17.86;100.00;96566.72;5068165;28;20897;-74
2022/06/06 06:38:58;;;;;;;3.80;3.50;;;;;;;18.07;100.00;96569.59;5031734;28;20472;-74
2022/06/06 06:41:44;;;;;;;8.03;4.87;;;;;;;17.80;100.00;96547.56;5071268;28;20428;-74
2022/06/06 06:44:40;;;;;;;3.80;3.50;;;;;;;18.22;100.00;96563.25;5070978;28;20980;-74
2022/06/06 06:47:19;;;;;;;3.90;3.60;;;;;;;18.32;100.00;96556.44;5068154;28;20440;-74
2022/06/06 06:49:51;;;;;;;7.53;3.60;;;;;;;18.21;100.00;96572.41;5054527;28;20433;-74
2022/06/06 06:52:30;;;;;;;4.03;3.70;;;;;;;18.34;100.00;96566.78;5051449;28;20429;-74
2022/06/06 06:55:15;;;;;;;6.37;4.40;;;;;;;18.09;100.00;96570.00;5079400;28;20488;-74
2022/06/06 06:58:21;;;;;;;5.20;3.90;;;;;;;18.04;100.00;96567.69;5075481;28;20889;-74
2022/06/06 07:01:00;;;;;;;4.10;3.80;;;;;;;18.17;100.00;96560.91;5054631;28;20493;-74
2022/06/06 07:10:03;;;;;;;4.30;3.97;;;;;;;19.32;100.00;96581.97;5072651;28;20935;-74
2022/06/06 07:12:49;;;;;;;4.40;4.03;;;;;;;19.69;100.00;96584.44;5070729;28;20440;-74
2022/06/06 07:15:43;;;;;;;4.20;2.90;;;;;;;18.77;100.00;96557.94;5071979;28;20456;-74
2022/06/06 07:18:15;;;;;;;6.37;4.00;;;;;;;19.02;100.00;96574.16;5070901;28;20820;-74
2022/06/06 07:20:45;;;;;;;7.80;3.83;;;;;;;19.00;100.00;96568.41;5059099;28;20820;-74
2022/06/06 07:23:14;;;;;;;3.83;3.53;;;;;;;19.53;100.00;96581.28;5070729;28;20459;-76
2022/06/06 07:25:44;;;;;;;9.33;3.57;;;;;;;19.53;100.00;96559.06;5070649;28;20508;-74
2022/06/06 07:28:16;;;;;;;3.40;3.10;;;;;;;19.09;100.00;96573.41;5067217;28;20423;-74
2022/06/06 07:31:01;;;;;;;4.20;3.80;;;;;;;19.00;100.00;96549.66;5070558;28;20444;-73
2022/06/06 07:33:37;;;;;;;4.53;4.13;;;;;;;19.30;100.00;96580.81;5076245;28;20458;-74
2022/06/06 07:36:26;;;;;;;4.03;3.70;;;;;;;19.63;100.00;96572.53;5092149;28;20437;-74
2022/06/06 07:39:06;;;;;;;3.83;3.37;;;;;;;20.08;100.00;96583.75;5090918;28;20500;-74
2022/06/06 07:41:51;;;;;;;4.43;3.47;;;;;;;19.46;100.00;96582.00;5086144;28;20432;-74
2022/06/06 07:44:35;;;;;;;3.70;3.30;;;;;;;19.64;100.00;96582.13;5087253;28;20521;-74
2022/06/06 07:47:12;;;;;;;3.93;3.63;;;;;;;19.56;100.00;96587.84;5070256;28;20964;-74
2022/06/06 07:50:05;;;;;;;3.90;3.60;;;;;;;19.40;100.00;96588.13;5070383;28;20534;-74
2022/06/06 07:52:44;;;;;;;5.20;3.93;;;;;;;19.40;100.00;96575.50;5062027;28;20437;-74
2022/06/06 07:55:36;;;;;;;4.27;3.57;;;;;;;19.28;100.00;96570.47;5072023;28;20475;-74
2022/06/06 07:58:16;;;;;;;3.67;3.37;;;;;;;19.69;100.00;96576.38;5053415;28;20463;-74
2022/06/06 08:00:49;;;;;;;4.37;3.33;;;;;;;19.76;100.00;96556.84;5070490;28;20668;-74
2022/06/06 08:03:28;;;;;;;3.70;2.90;;;;;;;19.94;100.00;96581.03;5070086;28;20456;-74
2022/06/06 08:06:32;;;;;;;3.13;2.83;;;;;;;20.25;100.00;96590.28;5071611;28;20428;-74
2022/06/06 08:09:01;;;;;;;3.63;3.23;;;;;;;20.57;100.00;96583.03;5071240;28;20456;-74
2022/06/06 08:11:47;;;;;;;3.23;2.93;;;;;;;20.24;100.00;96586.84;5070044;28;20444;-74
2022/06/06 08:14:17;;;;;;;5.03;3.63;;;;;;;20.43;100.00;96580.34;5071423;28;20445;-74
2022/06/06 08:17:17;;;;;;;4.50;3.17;;;;;;;20.51;100.00;96581.88;5070289;28;20428;-74
2022/06/06 08:20:12;;;;;;;3.77;3.37;;;;;;;20.64;100.00;96574.97;5070579;28;20421;-75
2022/06/06 08:22:42;;;;;;;3.40;3.13;;;;;;;20.81;100.00;96551.91;5070272;28;20460;-75
2022/06/06 08:25:12;;;;;;;4.13;3.83;;;;;;;21.30;100.00;96562.94;5074019;28;20427;-74
2022/06/06 08:27:46;;;;;;;3.90;3.60;;;;;;;21.24;100.00;96555.25;5090285;28;20428;-75
2022/06/06 08:30:15;;;;;;;16.90;3.80;;;;;;;21.03;100.00;96568.75;5073373;28;20474;-74
2022/06/06 08:32:47;;;;;;;3.60;3.30;;;;;;;21.16;100.00;96572.56;5091478;28;20493;-75
2022/06/06 08:35:14;;;;;;;4.60;3.37;;;;;;;20.04;100.00;96559.59;5090005;28;20450;-74
2022/06/06 08:38:09;;;;;;;4.03;3.40;;;;;;;20.37;100.00;96582.63;5076563;28;20459;-74
2022/06/06 08:40:57;;;;;;;5.57;3.20;;;;;;;20.70;100.00;96579.94;5069888;28;20440;-75
2022/06/06 08:43:31;;;;;;;3.20;3.00;;;;;;;20.94;100.00;96576.44;5070561;28;20817;-74
2022/06/06 08:46:16;;;;;;;3.70;3.03;;;;;;;20.71;100.00;96579.56;5071128;28;20432;-75
2022/06/06 08:53:00;;;;;;;4.03;3.43;;;;;;;21.19;100.00;96582.53;5026366;28;20563;-74
2022/06/06 08:55:50;;;;;;;3.33;2.90;;;;;;;21.28;100.00;96559.88;5018234;28;20434;-74
2022/06/06 08:58:44;;;;;;;4.20;3.60;;;;;;;21.23;100.00;96552.94;5069871;28;20526;-75
2022/06/06 09:01:26;;;;;;;3.20;2.90;;;;;;;21.50;98.82;96580.13;5069725;28;20502;-74
2022/06/06 09:04:28;;;;;;;5.37;2.83;;;;;;;21.58;98.86;96578.97;5069509;28;20455;-74
2022/06/06 09:07:41;;;;;;;3.40;3.10;;;;;;;21.11;95.33;96588.34;5071028;28;20428;-74
2022/06/06 09:10:45;;;;;;;3.53;2.97;;;;;;;21.05;97.87;96574.50;5073177;28;20909;-74
2022/06/06 09:13:46;;;;;;;3.90;3.30;;;;;;;21.23;97.05;96599.44;5073085;28;21000;-75
2022/06/06 09:16:26;;;;;;;3.20;2.90;;;;;;;21.42;98.30;96554.44;5073085;28;20440;-74
2022/06/06 09:19:23;;;;;;;3.23;2.93;;;;;;;21.31;97.84;96600.22;5072971;28;20467;-74
2022/06/06 09:22:08;;;;;;;3.30;2.93;;;;;;;20.41;97.31;96590.66;5072752;28;20440;-75
2022/06/06 09:24:45;;;;;;;3.83;3.00;;;;;;;21.13;96.24;96596.78;5072846;28;20460;-74
2022/06/06 09:27:30;;;;;;;3.17;2.87;;;;;;;21.84;93.77;96597.28;5072982;28;20469;-75
2022/06/06 09:30:34;;;;;;;3.70;3.07;;;;;;;21.66;89.97;96596.63;5072849;28;20480;-75
2022/06/06 09:33:21;;;;;;;3.00;2.80;;;;;;;21.36;90.64;96589.03;5074280;28;20448;-75
2022/06/06 09:35:51;;;;;;;5.17;2.77;;;;;;;21.77;89.67;96591.97;5072930;28;20474;-75
2022/06/06 09:39:09;;;;;;;3.80;3.33;;;;;;;22.24;90.51;96594.38;5072495;28;20505;-75
2022/06/06 09:41:58;;;;;;;4.00;2.60;;;;;;;21.91;87.40;96583.03;5011742;28;20506;-75
2022/06/06 09:44:37;;;;;;;4.20;2.40;;;;;;;21.91;86.44;96590.34;5011948;28;20505;-74
2022/06/06 09:47:15;;;;;;;3.73;3.13;;;;;;;21.41;89.59;96593.25;5017202;28;20454;-75
2022/06/06 09:50:19;;;;;;;3.50;3.20;;;;;;;20.89;89.85;96595.66;5033004;28;20442;-74
2022/06/06 09:53:33;;;;;;;3.10;2.90;;;;;;;21.01;92.75;96587.19;5014908;28;20453;-74
2022/06/06 09:59:55;;;;;;;3.77;3.30;;;;;;;20.88;89.51;96565.34;5014192;28;20494;-75
2022/06/06 10:02:34;;;;;;;2.83;2.63;;;;;;;20.96;89.62;96585.66;5014275;28;20446;-75
2022/06/06 10:05:31;;;;;;;4.20;3.30;;;;;;;20.87;90.56;96577.25;5014253;28;20527;-75
2022/06/06 10:08:52;;;;;;;3.20;2.70;;;;;;;21.68;90.00;96574.69;4997648;28;20473;-75
2022/06/06 10:11:49;;;;;;;4.67;2.90;;;;;;;22.06;90.50;96568.34;5030664;28;20434;-75
2022/06/06 10:14:18;;;;;;;2.90;2.20;;;;;;;22.29;85.92;96575.88;5013558;28;20552;-75
2022/06/06 10:16:55;;;;;;;2.60;2.40;;;;;;;22.53;82.75;96578.75;5013943;28;20431;-75
2022/06/06 10:19:37;;;;;;;5.23;2.80;;;;;;;22.39;81.21;96558.09;5029808;28;20473;-75
2022/06/06 10:22:37;;;;;;;4.40;2.77;;;;;;;22.52;80.19;96578.00;5059682;28;20460;-75
2022/06/06 10:25:28;;;;;;;4.47;2.97;;;;;;;22.28;82.56;96568.94;5071153;28;20503;-75
2022/06/06 10:27:58;;;;;;;3.50;2.70;;;;;;;22.13;79.90;96567.50;5071307;28;20437;-75
2022/06/06 10:30:50;;;;;;;4.10;3.80;;;;;;;21.84;81.64;96564.97;5072809;28;20421;-75
2022/06/06 10:33:17;;;;;;;3.93;3.07;;;;;;;22.26;83.29;96560.50;5071732;28;20468;-75
2022/06/06 10:35:59;;;;;;;3.67;2.80;;;;;;;22.48;81.46;96563.78;5071035;28;20967;-75
2022/06/06 10:38:45;;;;;;;3.27;2.97;;;;;;;22.50;78.34;96563.38;5076654;28;20513;-75
2022/06/06 10:41:20;;;;;;;3.40;2.80;;;;;;;22.33;76.98;96554.31;5078011;28;21026;-75
2022/06/06 10:44:12;;;;;;;3.40;3.20;;;;;;;22.55;78.91;96550.25;5082758;28;20436;-75
2022/06/06 10:46:57;;;;;;;10.63;3.40;;;;;;;22.64;77.30;96547.84;5064362;28;20475;-75
2022/06/06 10:49:39;;;;;;;4.30;2.97;;;;;;;22.06;78.67;96548.72;5085072;28;20411;-75
2022/06/06 10:52:15;;;;;;;3.90;2.90;;;;;;;22.04;80.61;96540.25;5059588;28;20437;-75
2022/06/06 10:55:01;;;;;;;3.30;3.00;;;;;;;21.65;80.09;96543.19;5072771;28;20501;-75
2022/06/06 10:57:37;;;;;;;2.73;2.53;;;;;;;21.64;81.57;96534.34;5092674;28;20451;-75
2022/06/06 11:00:22;;;;;;;4.00;3.70;;;;;;;22.24;80.24;96533.19;5081912;28;20436;-75
2022/06/06 11:03:17;;;;;;;3.97;3.30;;;;;;;22.05;79.01;96533.69;5058744;28;20460;-76
2022/06/06 11:06:09;;;;;;;2.67;2.47;;;;;;;22.11;80.97;96534.81;5071778;28;20506;-75
2022/06/06 11:08:39;;;;;;;3.30;3.10;;;;;;;22.00;81.73;96526.78;5074209;28;20780;-75
2022/06/06 11:11:18;;;;;;;3.40;3.20;;;;;;;21.27;82.94;96526.84;5085336;28;20434;-75
2022/06/06 11:14:09;;;;;;;3.90;2.70;;;;;;;21.37;83.22;96525.22;5071788;28;20452;-75
2022/06/06 11:17:01;;;;;;;3.10;2.87;;;;;;;22.33;81.56;96528.13;5071396;28;20437;-75
2022/06/06 11:19:58;;;;;;;4.23;2.60;;;;;;;22.76;73.73;96526.94;5075194;28;20498;-76
2022/06/06 11:22:29;;;;;;;2.57;2.37;;;;;;;22.96;73.94;96530.59;5059802;28;20416;-75
2022/06/06 11:25:13;;;;;;;2.87;2.67;;;;;;;23.36;74.66;96528.97;5070729;28;20531;-74
2022/06/06 11:27:43;;;;;;;2.90;2.70;;;;;;;23.39;71.55;96536.28;5070841;28;20425;-75
2022/06/06 11:30:20;;;;;;;4.17;3.37;;;;;;;23.13;72.08;96535.06;5070579;28;20444;-75
2022/06/06 11:33:18;;;;;;;2.63;2.33;;;;;;;22.78;71.63;96527.31;5072230;28;20500;-74
2022/06/06 11:36:03;;;;;;;3.40;3.10;;;;;;;22.99;72.62;96535.97;5061731;28;20447;-75
2022/06/06 11:38:34;;;;;;;3.20;2.90;;;;;;;23.35;72.56;96519.34;5071260;28;20456;-75
2022/06/06 11:41:15;;;;;;;7.53;3.53;;;;;;;21.99;72.72;96524.50;5070903;28;20445;-75
2022/06/06 11:44:10;;;;;;;3.63;3.30;;;;;;;22.23;74.50;96518.19;5071042;28;20460;-75
2022/06/06 11:46:55;;;;;;;2.80;2.40;;;;;;;23.47;71.56;96521.53;5071678;28;20864;-75
2022/06/06 11:49:47;;;;;;;3.03;2.80;;;;;;;23.68;70.89;96527.84;5083415;28;20420;-76
2022/06/06 11:52:53;;;;;;;3.37;3.07;;;;;;;23.35;68.76;96518.59;5070257;28;20433;-75
2022/06/06 11:55:32;;;;;;;3.60;3.30;;;;;;;22.88;69.70;96521.84;5071623;28;20427;-76
2022/06/06 11:58:17;;;;;;;4.37;3.97;;;;;;;22.82;72.89;96512.63;5071184;28;20440;-74
2022/06/06 12:01:16;;;;;;;3.40;2.70;;;;;;;23.22;71.38;96518.38;5071618;28;20470;-75
2022/06/06 12:03:43;;;;;;;3.27;2.97;;;;;;;23.58;69.95;96516.78;5039901;28;20468;-75
2022/06/06 12:06:16;;;;;;;3.13;2.93;;;;;;;24.10;71.69;96515.66;5056510;28;20803;-75
2022/06/06 12:08:47;;;;;;;3.47;2.93;;;;;;;24.75;68.65;96519.59;5069653;28;20494;-75
2022/06/06 12:11:40;;;;;;;3.30;2.97;;;;;;;25.03;66.51;96512.16;5070045;28;20474;-75
2022/06/06 12:14:29;;;;;;;3.53;3.07;;;;;;;25.07;67.05;96517.47;5069880;28;20816;-75
2022/06/06 12:17:33;;;;;;;6.10;3.20;;;;;;;24.97;66.23;96511.84;5069992;28;20484;-75
2022/06/06 12:20:30;;;;;;;3.63;3.43;;;;;;;24.98;65.51;96499.84;5069543;28;20448;-75
2022/06/06 12:23:01;;;;;;;3.00;2.80;;;;;;;24.65;64.75;96498.13;5069401;28;20472;-75
2022/06/06 12:25:34;;;;;;;4.63;3.07;;;;;;;25.04;64.74;96494.72;5069290;28;20441;-76
2022/06/06 12:28:18;;;;;;;5.67;4.40;;;;;;;24.91;62.86;96477.56;5069308;28;20449;-74
2022/06/06 12:31:01;;;;;;;6.03;2.80;;;;;;;25.29;61.99;96473.34;5069529;28;20447;-74
2022/06/06 12:33:35;;;;;;;4.23;3.50;;;;;;;25.51;63.52;96486.41;5069481;28;20468;-75
2022/06/06 12:36:14;;;;;;;4.47;4.07;;;;;;;25.61;63.09;96488.88;5069992;28;20840;-75
2022/06/06 12:38:44;;;;;;;3.07;2.87;;;;;;;26.37;62.54;96485.97;5052918;28;20884;-75
2022/06/06 12:41:19;;;;;;;4.23;3.83;;;;;;;26.13;60.53;96474.53;5069279;28;20444;-75
2022/06/06 12:44:27;;;;;;;4.50;2.60;;;;;;;26.59;59.85;96480.03;5074196;28;20463;-75
2022/06/06 12:47:03;;;;;;;3.43;2.80;;;;;;;25.58;58.66;96481.59;5044136;28;20479;-74
2022/06/06 12:49:39;;;;;;;3.90;3.40;;;;;;;25.24;61.37;96465.72;5070780;28;20432;-74
2022/06/06 12:52:18;;;;;;;9.03;4.37;;;;;;;25.92;61.17;96472.34;5074470;28;20437;-74
2022/06/06 12:57:33;;;;;;;4.70;3.13;;;;;;;26.35;59.54;96472.06;5071616;28;20425;-75